Overview Statistics Trail Chart Weather Telemetry Raw packets
 

This is the latest recevied weather packets stored in our database for station/object KB4MOX. If no packets are shown the sender has not sent any weather packets the latest 10 day(s).

<< 51 52 53 54 55 56 57 >>
Time Temp. Humidity Pressure Rain* Wind** Luminosity Snow
1788271845 28.33° C 75% 1020.6 hPa 0 mm - 45 W/m² -
1788271555 28.33° C 75% 1020.6 hPa 0 mm - 44 W/m² -
1788271244 28.33° C 75% 1020.7 hPa 0 mm - 44 W/m² -
1788270942 28.33° C 75% 1020.7 hPa 0 mm - 43 W/m² -
1788270638 27.78° C 74% 1020.9 hPa 0 mm - 68 W/m² -
1788270335 27.78° C 75% 1020.5 hPa 0 mm - 42 W/m² -
1788270029 27.78° C 74% 1020.7 hPa 0 mm - 41 W/m² -
1788269728 27.22° C 75% 1020.8 hPa 0 mm - 52 W/m² -
1788269427 27.22° C 75% 1020.7 hPa 0 mm - 40 W/m² -
1788269127 27.22° C 78% 1020.8 hPa 0 mm - 39 W/m² -
1788268827 26.67° C 79% 1020.7 hPa 0 mm - 38 W/m² -
1788268521 26.67° C 82% 1020.7 hPa 0 mm - 37 W/m² -
1788268216 26.67° C 83% 1020.8 hPa 0 mm - 36 W/m² -
1788267910 26.11° C 85% 1020.6 hPa 0 mm - 35 W/m² -
1788267604 26.11° C 86% 1020.8 hPa 0 mm - 35 W/m² -
1788267303 25.56° C 87% 1020.6 hPa 0 mm - 33 W/m² -
1788267002 25.56° C 90% 1020.6 hPa 0 mm - 32 W/m² -
1788266697 25° C 93% 1020.8 hPa 0 mm - 31 W/m² -
1788266392 23.89° C 95% 1020.7 hPa 0 mm - 30 W/m² -
1788266087 23.89° C 96% 1020.7 hPa 0 mm - 29 W/m² -
1788265785 23.33° C 96% 1020.6 hPa 0 mm - 29 W/m² -
1788265485 23.33° C 96% 1020.4 hPa 0 mm - 27 W/m² -
1788265185 22.78° C 96% 1020.4 hPa 0 mm - 26 W/m² -
1788264880 22.78° C 96% 1020.3 hPa 0 mm - 25 W/m² -
1788264575 22.78° C 96% 1020.5 hPa 0 mm - 24 W/m² -

* Rain latest hour (hover to see other rain measurements)
** Current wind speed in m/s (hover to see current wind gust speed)